Time;durP1;ratioP1;P1;durP2;ratioP2;P2;SDS_P1;SDS_P2;PMS_P1;PMS_P2;Temp;Humidity;BMP_temperature;BMP_pressure;BME280_temperature;BME280_humidity;BME280_pressure;Samples;Min_cycle;Max_cycle;Signal;HPM_P1;HPM_P2
2022/02/07 00:00:44;;;;;;;7.93;1.70;;;3.80;99.90;;;;;;5098959;28;20414;-75
2022/02/07 00:03:25;;;;;;;16.25;3.08;;;3.80;99.90;;;;;;5097551;28;20383;-76
2022/02/07 00:05:51;;;;;;;19.83;3.30;;;3.90;99.90;;;;;;5104711;28;20394;-76
2022/02/07 00:08:16;;;;;;;8.83;2.20;;;3.90;99.90;;;;;;5105573;28;20459;-76
2022/02/07 00:10:42;;;;;;;11.33;1.67;;;4.00;99.90;;;;;;5105084;28;20405;-76
2022/02/07 00:13:08;;;;;;;6.97;2.28;;;4.00;99.90;;;;;;5090037;28;20416;-77
2022/02/07 00:15:37;;;;;;;8.75;1.83;;;4.10;97.60;;;;;;5094437;28;20394;-75
2022/02/07 00:18:04;;;;;;;12.88;2.45;;;4.10;96.30;;;;;;5092835;28;20413;-76
2022/02/07 00:20:30;;;;;;;9.80;1.65;;;4.10;99.90;;;;;;5093532;28;20382;-77
2022/02/07 00:22:56;;;;;;;5.37;1.50;;;4.00;88.50;;;;;;5073576;28;20391;-78
2022/02/07 00:25:21;;;;;;;4.93;1.10;;;4.00;89.10;;;;;;5070623;28;20809;-76
2022/02/07 00:27:47;;;;;;;2.38;1.10;;;4.00;76.60;;;;;;5084856;28;20388;-77
2022/02/07 00:30:15;;;;;;;2.77;0.90;;;4.00;74.40;;;;;;5091785;28;20907;-77
2022/02/07 00:32:42;;;;;;;3.75;0.93;;;4.00;65.50;;;;;;5092261;28;20449;-79
2022/02/07 00:35:12;;;;;;;3.85;0.90;;;4.00;64.20;;;;;;5092202;28;20433;-78
2022/02/07 00:37:40;;;;;;;5.13;0.90;;;4.00;64.30;;;;;;5091947;28;20408;-78
2022/02/07 00:42:58;;;;;;;6.10;1.20;;;3.90;65.50;;;;;;5075898;28;20451;-78
2022/02/07 00:48:06;;;;;;;5.45;1.38;;;3.70;75.60;;;;;;5070858;28;20466;-77
2022/02/07 00:50:34;;;;;;;12.38;1.50;;;3.80;74.60;;;;;;5071355;28;20372;-76
2022/02/07 00:53:00;;;;;;;4.82;1.90;;;3.70;79.00;;;;;;5071540;28;20400;-78
2022/02/07 00:55:26;;;;;;;7.53;1.38;;;3.60;82.00;;;;;;5084426;28;20390;-79
2022/02/07 00:57:52;;;;;;;12.27;1.80;;;3.80;78.80;;;;;;5088058;28;20385;-78
2022/02/07 01:00:18;;;;;;;6.50;1.20;;;3.70;79.50;;;;;;5092251;28;20390;-79
2022/02/07 01:02:44;;;;;;;10.30;1.73;;;3.70;78.90;;;;;;5088937;28;20498;-79
2022/02/07 01:05:10;;;;;;;11.05;2.05;;;3.60;80.10;;;;;;5086087;28;20762;-79
2022/02/07 01:07:36;;;;;;;16.25;2.30;;;3.60;79.60;;;;;;5093686;28;20488;-78
2022/02/07 01:10:03;;;;;;;8.57;2.10;;;3.60;82.90;;;;;;5080933;28;20388;-76
2022/02/07 01:15:12;;;;;;;12.60;2.45;;;3.60;80.70;;;;;;5111764;28;20377;-78
2022/02/07 01:49:55;;;;;;;19.20;3.60;;;4.20;71.50;;;;;;5102330;28;20390;-78
2022/02/07 01:55:00;;;;;;;11.02;1.92;;;4.30;66.20;;;;;;5106731;28;20447;-79
2022/02/07 01:57:26;;;;;;;9.35;2.00;;;4.30;66.40;;;;;;5113334;28;20402;-78
2022/02/07 01:59:52;;;;;;;7.05;1.60;;;4.20;64.00;;;;;;5103504;28;20375;-78
2022/02/07 02:02:17;;;;;;;23.30;2.40;;;4.40;59.20;;;;;;5098638;28;20401;-79
2022/02/07 02:04:43;;;;;;;8.57;1.97;;;4.40;59.70;;;;;;5097786;28;20391;-79
2022/02/07 02:07:09;;;;;;;14.47;2.33;;;4.40;61.70;;;;;;5093981;28;20372;-78
2022/02/07 02:09:35;;;;;;;11.55;2.65;;;4.40;63.90;;;;;;5092680;28;20427;-77
2022/02/07 02:12:03;;;;;;;23.35;3.13;;;4.40;64.80;;;;;;5093168;28;20409;-77
2022/02/07 02:19:56;;;;;;;12.38;3.47;;;4.30;68.50;;;;;;5099768;28;20467;-78
2022/02/07 02:22:43;;;;;;;5.70;1.58;;;4.10;73.50;;;;;;5095224;28;20393;-78
2022/02/07 02:36:30;;;;;;;11.77;3.05;;;3.80;78.20;;;;;;5074991;28;20434;-77
2022/02/07 02:46:34;;;;;;;10.70;2.00;;;3.50;86.30;;;;;;5102339;28;20382;-78
2022/02/07 02:49:02;;;;;;;12.57;2.10;;;3.50;86.20;;;;;;5102873;28;20406;-77
2022/02/07 02:51:28;;;;;;;9.10;2.00;;;3.60;84.70;;;;;;5102068;28;20390;-77
2022/02/07 02:53:54;;;;;;;10.45;1.88;;;3.50;84.00;;;;;;5102527;28;20382;-78
2022/02/07 02:56:20;;;;;;;9.90;2.40;;;3.50;83.90;;;;;;5099522;28;20393;-78
2022/02/07 02:58:45;;;;;;;8.60;1.47;;;3.50;79.80;;;;;;5094867;28;20382;-79
2022/02/07 03:01:11;;;;;;;7.00;1.40;;;3.50;78.90;;;;;;5100350;28;20402;-78
2022/02/07 03:03:36;;;;;;;9.17;1.20;;;3.60;78.30;;;;;;5099337;28;20378;-78
2022/02/07 03:06:02;;;;;;;5.75;1.70;;;3.80;70.80;;;;;;5101473;28;20386;-77
2022/02/07 03:08:28;;;;;;;11.90;1.85;;;3.80;70.40;;;;;;5100536;28;20395;-79
2022/02/07 03:11:03;;;;;;;7.60;1.90;;;3.80;71.10;;;;;;5096568;28;20427;-79
2022/02/07 03:18:38;;;;;;;11.20;1.80;;;3.60;69.70;;;;;;5103016;28;20385;-79
2022/02/07 03:21:04;;;;;;;4.43;1.42;;;3.60;68.80;;;;;;5107121;28;20384;-76
2022/02/07 03:23:29;;;;;;;4.00;1.30;;;3.70;68.20;;;;;;5093319;28;20489;-77
2022/02/07 03:25:55;;;;;;;6.10;1.23;;;3.90;64.80;;;;;;5092360;28;20400;-78
2022/02/07 03:28:24;;;;;;;11.52;2.13;;;3.90;65.50;;;;;;5097604;28;20410;-78
2022/02/07 03:30:49;;;;;;;9.90;2.25;;;3.90;66.40;;;;;;5097236;28;20386;-78
2022/02/07 03:33:15;;;;;;;6.50;1.70;;;4.00;66.60;;;;;;5098659;28;20498;-76
2022/02/07 03:35:41;;;;;;;6.70;1.60;;;4.00;65.40;;;;;;5100964;28;20386;-78
2022/02/07 03:38:07;;;;;;;8.38;2.13;;;3.90;67.60;;;;;;5095566;28;20387;-77
2022/02/07 03:40:33;;;;;;;11.73;2.40;;;3.80;69.00;;;;;;5095776;28;20374;-77
2022/02/07 03:42:59;;;;;;;13.98;2.60;;;3.70;69.60;;;;;;5095737;28;20394;-77
2022/02/07 03:45:25;;;;;;;8.85;2.03;;;3.80;68.20;;;;;;5096549;28;20388;-78
2022/02/07 03:47:50;;;;;;;11.13;2.20;;;3.80;69.20;;;;;;5097646;28;20389;-78
2022/02/07 03:50:17;;;;;;;9.17;2.00;;;3.90;68.10;;;;;;5095820;28;20393;-78
2022/02/07 03:52:42;;;;;;;11.52;2.78;;;3.90;68.60;;;;;;5095414;28;20763;-77
2022/02/07 03:55:08;;;;;;;8.30;2.10;;;4.00;68.20;;;;;;5093752;28;20390;-78
2022/02/07 03:57:34;;;;;;;12.75;2.35;;;4.10;66.80;;;;;;5095996;28;20385;-78
2022/02/07 04:00:04;;;;;;;11.53;2.20;;;4.10;66.20;;;;;;5101049;28;20714;-76
2022/02/07 04:02:30;;;;;;;11.73;2.50;;;4.20;67.50;;;;;;5114259;28;20810;-77
2022/02/07 04:05:09;;;;;;;17.45;3.22;;;4.20;66.10;;;;;;5116103;28;20376;-78
2022/02/07 04:07:35;;;;;;;15.93;2.50;;;4.30;64.20;;;;;;5087351;28;20447;-77
2022/02/07 04:10:00;;;;;;;12.60;2.37;;;4.40;59.90;;;;;;5097219;28;20378;-77
2022/02/07 04:12:28;;;;;;;10.80;2.30;;;4.40;61.00;;;;;;5096326;28;20432;-77
2022/02/07 04:14:54;;;;;;;14.52;2.40;;;4.20;64.20;;;;;;5096331;28;20379;-78
2022/02/07 04:17:24;;;;;;;21.35;3.10;;;4.10;63.40;;;;;;5098033;28;20427;-79
2022/02/07 04:19:56;;;;;;;15.98;2.92;;;4.10;64.70;;;;;;5098699;28;20481;-77
2022/02/07 04:22:24;;;;;;;12.95;2.58;;;4.00;64.60;;;;;;5087569;28;20398;-78
2022/02/07 04:24:49;;;;;;;11.75;2.47;;;4.00;64.50;;;;;;5104971;28;20382;-78
2022/02/07 04:27:15;;;;;;;12.97;2.60;;;4.00;65.00;;;;;;5105663;28;20774;-78
2022/02/07 04:29:40;;;;;;;12.37;2.10;;;4.00;64.90;;;;;;5108528;28;20382;-78
2022/02/07 04:32:07;;;;;;;15.73;2.70;;;4.00;64.40;;;;;;5104500;28;20409;-79
2022/02/07 04:34:32;;;;;;;13.10;2.28;;;3.90;64.80;;;;;;5088708;28;20916;-79
2022/02/07 04:36:58;;;;;;;15.93;2.57;;;4.00;64.90;;;;;;5086985;28;20410;-80
2022/02/07 04:39:24;;;;;;;18.40;3.10;;;4.00;64.30;;;;;;5101018;28;20386;-79
2022/02/07 04:41:53;;;;;;;12.65;2.80;;;4.10;63.60;;;;;;5103204;28;20397;-79
2022/02/07 04:44:24;;;;;;;10.93;1.90;;;4.10;62.00;;;;;;5103687;28;20457;-79
2022/02/07 04:47:20;;;;;;;14.88;2.13;;;4.10;60.40;;;;;;5100237;28;20393;-80
2022/02/07 04:50:20;;;;;;;12.48;2.45;;;4.10;62.80;;;;;;5086624;28;20728;-79
2022/02/07 04:53:10;;;;;;;17.50;4.10;;;4.20;61.00;;;;;;5100583;28;20474;-79
2022/02/07 04:55:47;;;;;;;14.65;2.40;;;4.10;63.30;;;;;;5105982;28;20477;-79
2022/02/07 04:58:41;;;;;;;10.60;2.90;;;4.20;61.50;;;;;;5100177;28;20378;-79
2022/02/07 05:04:17;;;;;;;16.23;2.60;;;4.40;58.40;;;;;;5087640;28;20422;-78
2022/02/07 05:14:56;;;;;;;15.10;3.33;;;4.70;55.70;;;;;;5110318;28;20397;-77
2022/02/07 05:17:21;;;;;;;21.25;3.50;;;4.80;54.80;;;;;;5113061;28;20382;-77
2022/02/07 05:19:48;;;;;;;15.97;2.77;;;4.80;54.40;;;;;;5105044;28;20382;-81
2022/02/07 05:22:14;;;;;;;14.82;3.28;;;4.80;54.10;;;;;;5088726;28;20497;-78
2022/02/07 05:24:40;;;;;;;20.00;3.20;;;4.90;54.10;;;;;;5099154;28;20444;-78
2022/02/07 05:27:06;;;;;;;18.08;2.95;;;4.90;53.60;;;;;;5098759;28;20374;-79
2022/02/07 05:29:31;;;;;;;16.27;2.70;;;5.00;53.30;;;;;;5097744;28;20398;-78
2022/02/07 05:31:57;;;;;;;13.93;2.65;;;5.00;53.10;;;;;;5098038;28;20410;-78
2022/02/07 05:34:22;;;;;;;16.77;3.20;;;5.00;53.00;;;;;;5100037;28;20389;-79
2022/02/07 05:36:49;;;;;;;17.87;3.40;;;4.90;53.90;;;;;;5099543;28;20415;-79
2022/02/07 05:39:19;;;;;;;17.33;3.33;;;5.00;53.30;;;;;;5101997;28;20401;-76
2022/02/07 05:41:45;;;;;;;19.90;3.20;;;5.00;53.20;;;;;;5104924;28;20430;-77
2022/02/07 05:44:12;;;;;;;15.52;3.17;;;5.10;52.80;;;;;;5106216;28;20408;-77
2022/02/07 05:46:38;;;;;;;18.35;3.40;;;5.10;53.50;;;;;;5106081;28;20466;-79
2022/02/07 05:49:04;;;;;;;15.13;2.92;;;5.10;52.10;;;;;;5101093;28;20392;-79
2022/02/07 05:51:30;;;;;;;19.57;3.60;;;5.10;52.60;;;;;;5097740;28;20390;-79
2022/02/07 05:53:55;;;;;;;14.77;3.22;;;5.20;51.90;;;;;;5095081;28;20409;-78
2022/02/07 05:56:21;;;;;;;18.38;3.50;;;5.20;52.20;;;;;;5086099;28;20891;-80
2022/02/07 05:58:47;;;;;;;15.07;3.00;;;5.10;53.30;;;;;;5100797;28;20370;-78
2022/02/07 06:01:12;;;;;;;14.17;2.70;;;5.20;53.20;;;;;;5104979;28;20378;-78
2022/02/07 06:03:38;;;;;;;25.73;3.70;;;5.20;52.60;;;;;;5086810;28;20399;-79
2022/02/07 06:06:03;;;;;;;17.83;3.00;;;5.30;52.70;;;;;;5083958;28;20478;-79
2022/02/07 06:08:32;;;;;;;20.88;3.30;;;5.20;53.80;;;;;;5106699;28;20407;-77
2022/02/07 06:11:00;;;;;;;19.17;3.10;;;5.20;52.60;;;;;;5103547;28;20386;-78
2022/02/07 06:13:26;;;;;;;19.65;3.90;;;5.20;53.70;;;;;;5098383;28;20402;-79
2022/02/07 06:15:51;;;;;;;17.57;3.30;;;5.10;54.60;;;;;;5104417;28;20405;-77
2022/02/07 06:18:18;;;;;;;14.45;3.30;;;5.20;54.30;;;;;;5102613;28;20405;-79
2022/02/07 06:20:45;;;;;;;19.65;3.25;;;5.30;53.40;;;;;;5102769;28;20432;-78
2022/02/07 06:23:10;;;;;;;13.25;3.50;;;5.40;52.90;;;;;;5083121;28;20399;-77
2022/02/07 06:25:36;;;;;;;17.30;3.40;;;5.30;52.90;;;;;;5099994;28;20397;-80
2022/02/07 06:28:02;;;;;;;18.10;3.30;;;5.40;53.30;;;;;;5108629;28;20384;-77
2022/02/07 06:30:27;;;;;;;30.38;4.22;;;5.40;52.40;;;;;;5102478;28;20490;-78
2022/02/07 06:32:53;;;;;;;13.93;2.57;;;5.30;53.70;;;;;;5100368;28;20414;-78
2022/02/07 06:35:18;;;;;;;25.00;4.10;;;5.30;52.40;;;;;;5101430;28;20382;-78
2022/02/07 06:37:44;;;;;;;15.93;3.20;;;5.30;53.80;;;;;;5091485;28;20391;-78
2022/02/07 06:40:10;;;;;;;19.77;4.13;;;5.40;53.80;;;;;;5088271;28;20722;-76
2022/02/07 06:42:36;;;;;;;17.50;3.17;;;5.30;53.90;;;;;;5088369;28;20426;-77
2022/02/07 06:45:04;;;;;;;19.13;3.57;;;5.40;53.40;;;;;;5086911;28;20536;-77
2022/02/07 06:47:29;;;;;;;17.13;3.43;;;5.30;54.10;;;;;;5092509;28;20399;-78
2022/02/07 06:49:55;;;;;;;15.50;3.93;;;5.10;56.10;;;;;;5102114;28;20475;-78
2022/02/07 06:52:20;;;;;;;20.17;3.92;;;5.20;54.90;;;;;;5102596;28;20412;-79
2022/02/07 06:54:46;;;;;;;14.32;3.17;;;5.20;56.20;;;;;;5110816;28;20390;-78
2022/02/07 06:57:15;;;;;;;16.30;3.30;;;5.30;54.70;;;;;;5110169;28;20404;-79
2022/02/07 06:59:42;;;;;;;24.42;4.18;;;5.20;55.00;;;;;;5109026;28;20381;-79
2022/02/07 07:02:11;;;;;;;21.55;4.22;;;5.00;57.20;;;;;;5101176;28;20420;-79
2022/02/07 07:04:37;;;;;;;20.88;2.80;;;5.00;58.60;;;;;;5105476;28;20386;-78
2022/02/07 07:07:03;;;;;;;22.38;3.15;;;5.10;58.60;;;;;;5085012;28;20421;-79
2022/02/07 07:09:29;;;;;;;13.77;3.03;;;5.20;55.80;;;;;;5115912;27;20516;-78
2022/02/07 07:12:02;;;;;;;17.48;4.50;;;5.20;56.30;;;;;;5111721;28;20428;-79
2022/02/07 07:14:32;;;;;;;14.43;3.30;;;5.10;57.80;;;;;;5109686;28;20390;-78
2022/02/07 07:16:58;;;;;;;15.32;3.10;;;5.10;57.80;;;;;;5100686;28;20389;-78
2022/02/07 07:19:26;;;;;;;17.10;3.67;;;5.10;58.50;;;;;;5099415;28;20450;-78
2022/02/07 07:21:52;;;;;;;22.58;4.30;;;5.00;59.50;;;;;;5092417;28;20388;-78
2022/02/07 07:24:18;;;;;;;19.77;2.92;;;5.10;59.00;;;;;;5102263;28;20480;-78
2022/02/07 07:26:44;;;;;;;22.33;3.58;;;5.30;56.90;;;;;;5099812;28;20393;-80
2022/02/07 07:29:14;;;;;;;22.63;4.45;;;5.40;56.20;;;;;;5101539;28;20393;-78
2022/02/07 07:31:47;;;;;;;17.50;4.00;;;5.40;56.80;;;;;;5101757;28;20397;-78
2022/02/07 07:34:16;;;;;;;23.85;4.47;;;5.50;57.30;;;;;;5092294;28;20411;-78
2022/02/07 07:36:43;;;;;;;18.42;3.50;;;5.40;58.80;;;;;;5102044;28;20449;-80
2022/02/07 07:39:10;;;;;;;28.77;4.60;;;5.40;58.40;;;;;;5103603;28;20385;-79
2022/02/07 07:41:36;;;;;;;26.35;3.75;;;5.40;58.30;;;;;;5102037;28;20382;-79
2022/02/07 07:44:01;;;;;;;23.87;4.33;;;5.30;60.10;;;;;;5093779;28;20698;-80
2022/02/07 07:46:30;;;;;;;18.73;4.20;;;5.40;60.60;;;;;;5089462;28;20406;-84
2022/02/07 07:49:27;;;;;;;20.42;3.70;;;5.40;61.40;;;;;;5095703;28;20398;-83
2022/02/07 07:51:56;;;;;;;26.58;4.40;;;5.40;61.20;;;;;;5096992;28;20396;-81
2022/02/07 08:02:28;;;;;;;30.48;3.42;;;5.60;61.00;;;;;;5089848;28;20422;-81
2022/02/07 08:04:55;;;;;;;26.27;4.60;;;5.60;61.80;;;;;;5114101;28;20884;-80
2022/02/07 08:07:29;;;;;;;24.65;4.10;;;5.30;64.40;;;;;;5086564;28;20403;-79
2022/02/07 08:10:26;;;;;;;22.02;4.10;;;5.40;63.60;;;;;;5093608;28;20433;-79
2022/02/07 08:12:52;;;;;;;25.60;4.13;;;5.40;62.20;;;;;;5095873;28;20424;-80
2022/02/07 08:15:18;;;;;;;20.08;4.07;;;5.40;62.40;;;;;;5107966;28;20385;-79
2022/02/07 08:17:44;;;;;;;25.33;3.50;;;5.40;60.60;;;;;;5095643;28;20394;-78
2022/02/07 08:20:10;;;;;;;21.98;4.40;;;5.40;60.90;;;;;;5099728;28;20391;-77
2022/02/07 08:22:36;;;;;;;16.77;3.58;;;5.30;61.40;;;;;;5102565;28;20388;-80
2022/02/07 08:25:02;;;;;;;16.88;3.85;;;5.30;61.30;;;;;;5116560;28;20462;-80
2022/02/07 08:27:30;;;;;;;18.08;4.18;;;5.30;61.70;;;;;;5108161;28;20444;-83
2022/02/07 08:29:57;;;;;;;23.75;4.70;;;5.30;60.80;;;;;;5090696;28;20817;-83
2022/02/07 08:32:23;;;;;;;23.63;4.47;;;5.40;60.20;;;;;;5097631;28;20412;-82
2022/02/07 08:34:49;;;;;;;20.50;3.60;;;5.50;58.80;;;;;;5107717;28;20455;-82
2022/02/07 08:37:15;;;;;;;31.63;3.80;;;5.60;56.90;;;;;;5095282;28;20393;-83
2022/02/07 08:39:42;;;;;;;22.10;4.05;;;5.70;58.00;;;;;;5097691;28;20407;-78
2022/02/07 08:42:08;;;;;;;22.05;3.90;;;5.90;57.50;;;;;;5093869;28;20825;-78
2022/02/07 08:44:33;;;;;;;17.42;3.90;;;6.00;55.30;;;;;;5095543;28;20405;-78
2022/02/07 08:46:59;;;;;;;21.13;4.30;;;6.20;54.40;;;;;;5087732;28;20392;-79
2022/02/07 08:49:25;;;;;;;27.07;4.10;;;6.20;53.60;;;;;;5088658;28;20838;-79
2022/02/07 08:51:50;;;;;;;21.70;3.50;;;6.10;54.10;;;;;;5095058;28;20394;-78
2022/02/07 08:54:22;;;;;;;19.63;4.05;;;6.20;54.20;;;;;;5089354;28;20872;-78
2022/02/07 08:57:01;;;;;;;29.30;4.30;;;6.20;52.90;;;;;;5083974;28;20390;-79
2022/02/07 08:59:44;;;;;;;22.45;4.25;;;6.30;52.70;;;;;;5079254;28;20390;-78
2022/02/07 09:02:21;;;;;;;25.80;4.27;;;6.30;52.70;;;;;;5081569;28;20400;-79
2022/02/07 09:04:55;;;;;;;25.08;3.50;;;6.40;51.20;;;;;;5093204;28;20386;-78
2022/02/07 09:07:30;;;;;;;21.65;4.05;;;6.40;50.20;;;;;;5083417;28;20402;-80
2022/02/07 09:09:57;;;;;;;18.02;3.83;;;6.40;51.40;;;;;;5089306;28;20398;-78
2022/02/07 09:12:23;;;;;;;26.20;4.70;;;6.50;51.50;;;;;;5075685;28;20492;-76
2022/02/07 09:15:17;;;;;;;18.92;3.90;;;6.50;52.00;;;;;;5083637;28;20435;-77
2022/02/07 09:17:42;;;;;;;17.70;3.60;;;6.50;51.90;;;;;;5080757;28;20440;-77
2022/02/07 09:20:08;;;;;;;22.83;4.60;;;6.70;51.00;;;;;;5075541;28;20396;-78
2022/02/07 09:22:34;;;;;;;20.70;4.50;;;6.80;50.40;;;;;;5084238;28;20429;-77
2022/02/07 09:25:00;;;;;;;17.43;3.70;;;6.90;49.40;;;;;;5077327;28;20411;-78
2022/02/07 09:27:25;;;;;;;20.00;4.70;;;7.00;48.60;;;;;;5084399;28;20848;-77
2022/02/07 09:29:51;;;;;;;23.03;4.23;;;6.90;49.30;;;;;;5087345;28;20405;-78
2022/02/07 09:32:16;;;;;;;22.43;4.47;;;6.90;49.30;;;;;;5088839;28;20438;-80
2022/02/07 09:34:42;;;;;;;23.40;4.40;;;6.90;49.40;;;;;;5088790;28;20401;-82
2022/02/07 09:37:08;;;;;;;25.92;4.50;;;6.90;49.70;;;;;;5093734;28;20410;-82
2022/02/07 09:39:33;;;;;;;18.10;5.70;;;6.80;50.30;;;;;;5081202;28;20382;-81
2022/02/07 09:42:09;;;;;;;21.60;4.22;;;6.80;51.00;;;;;;5102796;28;20398;-82
2022/02/07 09:44:45;;;;;;;27.73;4.40;;;6.80;50.60;;;;;;5088187;28;20471;-81
2022/02/07 09:47:10;;;;;;;22.00;4.03;;;6.70;51.80;;;;;;5084515;28;20833;-82
2022/02/07 09:49:36;;;;;;;29.05;4.95;;;6.80;50.50;;;;;;5085538;28;20391;-81
2022/02/07 09:52:04;;;;;;;25.95;4.65;;;6.90;50.20;;;;;;5101408;28;20402;-82
2022/02/07 09:54:30;;;;;;;19.33;4.07;;;7.10;49.50;;;;;;5105137;28;20407;-82
2022/02/07 09:56:57;;;;;;;23.25;3.22;;;7.30;49.20;;;;;;5106872;28;20389;-82
2022/02/07 09:59:27;;;;;;;21.40;4.13;;;7.20;47.50;;;;;;5095967;28;20387;-83
2022/02/07 10:01:55;;;;;;;16.63;3.63;;;7.20;48.50;;;;;;5083992;28;20478;-82
2022/02/07 10:04:33;;;;;;;29.65;5.57;;;7.10;47.40;;;;;;5108242;28;20387;-82
2022/02/07 10:14:30;;;;;;;32.67;5.53;;;7.40;45.00;;;;;;5091404;28;20388;-81
2022/02/07 10:34:32;;;;;;;15.13;3.42;;;7.50;45.80;;;;;;5058199;28;20397;-81
2022/02/07 10:40:42;;;;;;;31.58;4.65;;;8.10;42.50;;;;;;5089187;28;20459;-80
2022/02/07 10:43:21;;;;;;;17.67;3.65;;;8.30;42.40;;;;;;5093245;28;20397;-79
2022/02/07 10:46:05;;;;;;;19.10;2.25;;;8.10;43.00;;;;;;5088647;28;20404;-80
2022/02/07 10:48:42;;;;;;;19.55;4.07;;;7.70;44.30;;;;;;5089285;28;20445;-81
2022/02/07 10:51:26;;;;;;;35.33;5.00;;;7.80;44.30;;;;;;5099411;28;20405;-80
2022/02/07 10:53:53;;;;;;;23.48;5.43;;;8.10;43.30;;;;;;5089918;28;20402;-79
2022/02/07 10:56:21;;;;;;;27.02;4.50;;;8.30;40.80;;;;;;5092761;28;20412;-79
2022/02/07 10:58:52;;;;;;;27.80;5.60;;;8.40;41.40;;;;;;5097722;28;20378;-80
2022/02/07 11:01:38;;;;;;;26.58;4.65;;;8.60;41.00;;;;;;5097068;28;20390;-80
2022/02/07 11:04:10;;;;;;;21.03;4.60;;;8.70;39.30;;;;;;5095546;28;20470;-83
2022/02/07 11:06:38;;;;;;;28.77;4.65;;;8.70;39.40;;;;;;5090441;28;20397;-76
2022/02/07 11:11:56;;;;;;;26.52;5.03;;;8.70;38.60;;;;;;5096324;28;20396;-79
2022/02/07 11:14:36;;;;;;;29.93;5.37;;;8.60;39.30;;;;;;5109397;28;20431;-81
2022/02/07 11:19:47;;;;;;;23.95;5.00;;;8.70;38.60;;;;;;5117931;28;20386;-79
2022/02/07 11:25:42;;;;;;;26.35;4.72;;;8.40;40.00;;;;;;5096585;28;20429;-80
2022/02/07 11:27:56;;;;;;;17.37;4.10;;;8.10;41.90;;;;;;5095951;28;20412;-80
2022/02/07 11:30:41;;;;;;;27.97;4.60;;;8.10;42.40;;;;;;5095854;28;20519;-78
2022/02/07 11:33:26;;;;;;;18.40;4.60;;;8.10;43.40;;;;;;5116251;28;20563;-79
2022/02/07 11:35:52;;;;;;;22.15;4.50;;;8.00;43.80;;;;;;5098252;28;20382;-80
2022/02/07 11:38:19;;;;;;;22.83;5.07;;;8.00;42.90;;;;;;5111871;28;20396;-81
2022/02/07 11:41:03;;;;;;;14.85;3.60;;;8.10;43.40;;;;;;5113163;28;20393;-81
2022/02/07 11:43:31;;;;;;;29.63;5.10;;;8.30;42.20;;;;;;5100117;28;20386;-81
2022/02/07 11:45:56;;;;;;;25.02;4.65;;;8.50;41.90;;;;;;5092095;28;20401;-80
2022/02/07 11:48:39;;;;;;;17.23;3.78;;;8.60;39.60;;;;;;5108277;28;20386;-82
2022/02/07 11:51:17;;;;;;;21.30;4.70;;;8.50;39.10;;;;;;5110732;28;20404;-80
2022/02/07 11:53:49;;;;;;;20.35;4.13;;;8.50;39.20;;;;;;5104662;28;20473;-81
2022/02/07 11:56:35;;;;;;;20.90;4.30;;;8.50;38.70;;;;;;5110360;28;20427;-80
2022/02/07 12:01:47;;;;;;;22.02;3.83;;;8.50;38.40;;;;;;5086653;28;20796;-81
2022/02/07 12:04:25;;;;;;;24.75;4.60;;;8.70;38.40;;;;;;5080030;28;20459;-80
2022/02/07 12:07:11;;;;;;;16.02;4.00;;;8.80;38.30;;;;;;5094397;28;20393;-80
2022/02/07 12:09:59;;;;;;;20.67;3.83;;;9.00;37.40;;;;;;5073806;28;20861;-81
2022/02/07 12:12:41;;;;;;;18.73;4.00;;;9.20;36.70;;;;;;5089908;28;20485;-82
2022/02/07 12:15:13;;;;;;;18.33;3.75;;;9.40;36.20;;;;;;5093545;28;20383;-80
2022/02/07 12:17:45;;;;;;;20.43;4.20;;;9.30;35.50;;;;;;5101017;28;20408;-80
2022/02/07 12:20:23;;;;;;;21.25;4.00;;;9.10;35.70;;;;;;5108009;28;20418;-79
2022/02/07 12:22:51;;;;;;;17.90;3.90;;;8.90;37.50;;;;;;5084643;28;20799;-82
2022/02/07 12:25:22;;;;;;;19.17;4.40;;;8.50;39.00;;;;;;5085767;28;20623;-79
2022/02/07 12:27:48;;;;;;;21.05;3.75;;;8.40;40.40;;;;;;5089107;28;20451;-81
2022/02/07 12:30:17;;;;;;;17.35;3.90;;;8.50;40.30;;;;;;5098022;28;20378;-81
2022/02/07 12:32:46;;;;;;;19.40;4.10;;;8.80;39.60;;;;;;5104071;28;20502;-81
2022/02/07 12:35:12;;;;;;;15.97;3.70;;;9.00;38.30;;;;;;5104882;28;20838;-81
2022/02/07 12:37:39;;;;;;;20.05;4.10;;;8.90;37.70;;;;;;5112791;28;20394;-80
2022/02/07 12:40:08;;;;;;;26.73;4.17;;;8.70;37.70;;;;;;5110138;28;20389;-80
2022/02/07 12:42:34;;;;;;;17.55;4.05;;;8.40;38.50;;;;;;5093878;28;20378;-79
2022/02/07 12:45:02;;;;;;;18.35;4.63;;;8.40;38.20;;;;;;5083854;28;20388;-82
2022/02/07 12:47:32;;;;;;;14.95;3.95;;;8.50;38.00;;;;;;5087143;28;20388;-82
2022/02/07 12:50:09;;;;;;;14.10;3.72;;;8.50;37.60;;;;;;5088854;28;20399;-78
2022/02/07 12:52:37;;;;;;;17.40;4.57;;;8.30;38.70;;;;;;5090985;28;20412;-78
2022/02/07 12:55:04;;;;;;;19.90;4.10;;;8.30;38.00;;;;;;5098850;28;20894;-77
2022/02/07 12:57:41;;;;;;;20.50;4.55;;;8.30;38.70;;;;;;5091575;28;20405;-81
2022/02/07 13:00:09;;;;;;;16.70;4.47;;;8.20;37.70;;;;;;5096369;28;20402;-80
2022/02/07 13:02:35;;;;;;;16.13;3.83;;;8.30;37.60;;;;;;5086780;28;20458;-80
2022/02/07 13:05:01;;;;;;;12.90;3.75;;;8.30;36.80;;;;;;5091914;28;20463;-77
2022/02/07 13:07:30;;;;;;;18.88;3.88;;;8.20;36.80;;;;;;5091821;28;20515;-81
2022/02/07 13:09:57;;;;;;;13.13;3.60;;;8.10;37.10;;;;;;5095528;28;20412;-82
2022/02/07 13:12:50;;;;;;;14.93;3.70;;;8.10;37.00;;;;;;5100802;28;20406;-82
2022/02/07 13:15:22;;;;;;;14.23;3.03;;;8.20;37.50;;;;;;5097606;28;20489;-83
2022/02/07 13:17:52;;;;;;;25.48;4.10;;;8.30;37.20;;;;;;5094139;28;20397;-82
2022/02/07 13:20:20;;;;;;;12.63;3.60;;;8.30;37.70;;;;;;5088921;28;20412;-83
2022/02/07 13:22:47;;;;;;;20.23;3.80;;;8.30;37.00;;;;;;5084435;28;20412;-84
2022/02/07 13:25:13;;;;;;;15.57;3.97;;;8.30;36.40;;;;;;5090675;28;20466;-82
2022/02/07 13:27:40;;;;;;;17.77;4.00;;;8.50;35.80;;;;;;5094595;28;20494;-83
2022/02/07 13:30:13;;;;;;;15.13;3.10;;;8.60;34.00;;;;;;5093947;28;20464;-82
2022/02/07 13:32:40;;;;;;;13.82;3.60;;;8.70;34.30;;;;;;5097968;28;20465;-77
2022/02/07 13:35:09;;;;;;;19.95;3.60;;;8.80;33.60;;;;;;5097849;28;20460;-78
2022/02/07 13:37:36;;;;;;;13.57;3.30;;;8.80;33.30;;;;;;5095953;28;20394;-78
2022/02/07 13:40:12;;;;;;;16.57;3.27;;;8.80;33.50;;;;;;5095110;28;20401;-76
2022/02/07 13:42:43;;;;;;;15.20;3.35;;;8.80;30.80;;;;;;5083482;28;20435;-79
2022/02/07 13:45:13;;;;;;;15.80;3.30;;;8.70;31.30;;;;;;5078787;28;20376;-77
2022/02/07 13:47:43;;;;;;;16.92;3.42;;;8.60;30.50;;;;;;5081955;28;20457;-76
2022/02/07 13:50:14;;;;;;;16.70;3.33;;;8.60;30.60;;;;;;5078675;28;20394;-77
2022/02/07 13:52:41;;;;;;;15.45;3.10;;;8.70;30.10;;;;;;5092959;28;20402;-77
2022/02/07 13:55:26;;;;;;;16.80;3.50;;;8.90;30.00;;;;;;5094075;28;20466;-77
2022/02/07 13:57:55;;;;;;;15.60;3.10;;;9.00;30.00;;;;;;5096517;28;20442;-78
2022/02/07 14:00:24;;;;;;;11.38;3.40;;;9.10;28.70;;;;;;5095449;28;20755;-78
2022/02/07 14:03:07;;;;;;;11.48;3.25;;;9.00;30.30;;;;;;5094522;28;20439;-76
2022/02/07 14:05:35;;;;;;;17.45;3.38;;;8.80;30.30;;;;;;5097530;28;20441;-78
2022/02/07 14:08:02;;;;;;;18.42;3.78;;;8.70;31.30;;;;;;5099473;28;20392;-77
2022/02/07 14:10:33;;;;;;;17.15;3.40;;;8.60;31.90;;;;;;5087919;28;20396;-78
2022/02/07 14:12:59;;;;;;;8.45;2.70;;;8.40;32.70;;;;;;5091970;28;20402;-77
2022/02/07 14:15:25;;;;;;;14.90;2.87;;;8.30;32.80;;;;;;5085781;28;20465;-77
2022/02/07 14:17:50;;;;;;;16.60;3.00;;;8.30;33.40;;;;;;5099826;28;20382;-78
2022/02/07 14:20:20;;;;;;;7.07;3.10;;;8.20;33.40;;;;;;5099646;28;20383;-79
2022/02/07 14:22:46;;;;;;;10.15;2.90;;;8.20;33.20;;;;;;5089485;28;20388;-77
2022/02/07 14:25:12;;;;;;;13.23;3.10;;;8.30;32.70;;;;;;5087192;28;20394;-77
2022/02/07 14:27:38;;;;;;;11.57;3.10;;;8.60;32.60;;;;;;5094990;28;20453;-78
2022/02/07 14:30:05;;;;;;;10.05;2.70;;;8.70;31.40;;;;;;5103327;28;20439;-76
2022/02/07 14:32:30;;;;;;;17.50;2.65;;;8.50;30.90;;;;;;5101494;28;20414;-77
2022/02/07 14:34:56;;;;;;;10.67;2.70;;;8.50;31.10;;;;;;5099577;28;20424;-78
2022/02/07 14:37:23;;;;;;;11.33;2.80;;;8.90;30.30;;;;;;5105722;28;20378;-78
2022/02/07 14:39:49;;;;;;;12.93;2.80;;;8.90;30.10;;;;;;5102904;28;20389;-78
2022/02/07 14:42:15;;;;;;;10.43;2.40;;;8.70;30.20;;;;;;5098889;28;20409;-78
2022/02/07 14:44:57;;;;;;;13.13;2.83;;;9.10;29.70;;;;;;5077513;28;20399;-77
2022/02/07 14:47:40;;;;;;;11.73;3.03;;;9.30;28.30;;;;;;5075519;28;20490;-77
2022/02/07 14:50:06;;;;;;;12.02;3.08;;;9.70;28.20;;;;;;5076987;28;20856;-77
2022/02/07 14:52:31;;;;;;;9.43;2.13;;;9.90;26.70;;;;;;5076881;28;20403;-77
2022/02/07 14:54:57;;;;;;;14.20;2.95;;;9.90;26.00;;;;;;5077004;28;20906;-77
2022/02/07 14:57:22;;;;;;;14.48;2.72;;;9.70;26.40;;;;;;5093980;28;20459;-78
2022/02/07 14:59:48;;;;;;;11.38;2.50;;;9.50;26.40;;;;;;5097988;28;20393;-78
2022/02/07 15:02:14;;;;;;;12.35;2.42;;;9.40;26.00;;;;;;5099490;28;20399;-78
2022/02/07 15:04:40;;;;;;;9.75;2.80;;;9.00;25.90;;;;;;5097643;28;20397;-78
2022/02/07 15:07:06;;;;;;;9.95;2.65;;;8.80;27.80;;;;;;5095390;28;20463;-78
2022/02/07 15:09:31;;;;;;;11.98;2.70;;;8.80;28.00;;;;;;5077218;28;20407;-77